sensor_id;sensor_type;location;lat;lon;timestamp;P1;durP1;ratioP1;P2;durP2;ratioP2
60641;SDS011;46837;52.446;-1.930;2023-04-03T00:00:07;8.98;;;2.26;;
60641;SDS011;46837;52.446;-1.930;2023-04-03T00:01:07;4.86;;;2.06;;
60641;SDS011;46837;52.446;-1.930;2023-04-03T00:02:07;5.52;;;2.02;;
60641;SDS011;46837;52.446;-1.930;2023-04-03T00:03:07;5.62;;;2.50;;
60641;SDS011;46837;52.446;-1.930;2023-04-03T00:04:07;8.80;;;2.38;;
60641;SDS011;46837;52.446;-1.930;2023-04-03T00:05:07;10.62;;;2.16;;
60641;SDS011;46837;52.446;-1.930;2023-04-03T00:06:07;7.46;;;2.78;;
60641;SDS011;46837;52.446;-1.930;2023-04-03T00:07:07;8.30;;;2.52;;
60641;SDS011;46837;52.446;-1.930;2023-04-03T00:08:08;10.96;;;1.78;;
60641;SDS011;46837;52.446;-1.930;2023-04-03T00:09:07;6.88;;;2.02;;
60641;SDS011;46837;52.446;-1.930;2023-04-03T00:10:07;10.70;;;2.44;;
60641;SDS011;46837;52.446;-1.930;2023-04-03T00:11:07;10.38;;;1.98;;
60641;SDS011;46837;52.446;-1.930;2023-04-03T00:12:07;9.14;;;2.08;;
60641;SDS011;46837;52.446;-1.930;2023-04-03T00:13:07;6.66;;;2.12;;
60641;SDS011;46837;52.446;-1.930;2023-04-03T00:14:07;7.82;;;2.44;;
60641;SDS011;46837;52.446;-1.930;2023-04-03T00:15:07;10.96;;;2.48;;
60641;SDS011;46837;52.446;-1.930;2023-04-03T00:16:07;5.68;;;1.54;;
60641;SDS011;46837;52.446;-1.930;2023-04-03T00:17:07;10.88;;;1.94;;
60641;SDS011;46837;52.446;-1.930;2023-04-03T00:18:07;9.80;;;2.22;;
60641;SDS011;46837;52.446;-1.930;2023-04-03T00:19:07;11.36;;;2.10;;
60641;SDS011;46837;52.446;-1.930;2023-04-03T00:20:07;3.46;;;1.62;;
60641;SDS011;46837;52.446;-1.930;2023-04-03T00:21:07;8.10;;;1.84;;
60641;SDS011;46837;52.446;-1.930;2023-04-03T00:22:07;10.58;;;2.32;;
60641;SDS011;46837;52.446;-1.930;2023-04-03T00:23:07;8.22;;;2.52;;
60641;SDS011;46837;52.446;-1.930;2023-04-03T00:24:07;15.00;;;2.34;;
60641;SDS011;46837;52.446;-1.930;2023-04-03T00:25:07;7.58;;;1.98;;
60641;SDS011;46837;52.446;-1.930;2023-04-03T00:26:07;7.48;;;1.98;;
60641;SDS011;46837;52.446;-1.930;2023-04-03T00:27:07;5.36;;;1.96;;
60641;SDS011;46837;52.446;-1.930;2023-04-03T00:28:07;9.98;;;2.02;;
60641;SDS011;46837;52.446;-1.930;2023-04-03T00:29:07;11.58;;;2.18;;
60641;SDS011;46837;52.446;-1.930;2023-04-03T00:30:08;11.72;;;2.28;;
60641;SDS011;46837;52.446;-1.930;2023-04-03T00:31:07;8.82;;;2.44;;
60641;SDS011;46837;52.446;-1.930;2023-04-03T00:32:07;17.80;;;4.34;;
60641;SDS011;46837;52.446;-1.930;2023-04-03T00:33:07;8.70;;;2.64;;
60641;SDS011;46837;52.446;-1.930;2023-04-03T00:34:07;5.48;;;2.02;;
60641;SDS011;46837;52.446;-1.930;2023-04-03T00:35:07;6.32;;;1.52;;
60641;SDS011;46837;52.446;-1.930;2023-04-03T00:36:08;8.30;;;2.16;;
60641;SDS011;46837;52.446;-1.930;2023-04-03T00:37:07;10.02;;;2.42;;
60641;SDS011;46837;52.446;-1.930;2023-04-03T00:38:07;10.86;;;2.16;;
60641;SDS011;46837;52.446;-1.930;2023-04-03T00:39:07;12.62;;;2.18;;
60641;SDS011;46837;52.446;-1.930;2023-04-03T00:40:07;14.64;;;1.96;;
60641;SDS011;46837;52.446;-1.930;2023-04-03T00:41:07;6.56;;;2.02;;
60641;SDS011;46837;52.446;-1.930;2023-04-03T00:42:07;8.86;;;3.06;;
60641;SDS011;46837;52.446;-1.930;2023-04-03T00:43:11;5.54;;;2.68;;
60641;SDS011;46837;52.446;-1.930;2023-04-03T00:45:31;17.38;;;2.96;;
60641;SDS011;46837;52.446;-1.930;2023-04-03T00:46:07;9.46;;;2.44;;
60641;SDS011;46837;52.446;-1.930;2023-04-03T00:47:08;9.30;;;2.82;;
60641;SDS011;46837;52.446;-1.930;2023-04-03T00:48:08;7.84;;;1.74;;
60641;SDS011;46837;52.446;-1.930;2023-04-03T00:49:07;10.44;;;2.34;;
60641;SDS011;46837;52.446;-1.930;2023-04-03T00:50:07;4.76;;;1.92;;
60641;SDS011;46837;52.446;-1.930;2023-04-03T00:51:08;8.22;;;2.22;;
60641;SDS011;46837;52.446;-1.930;2023-04-03T00:52:07;7.40;;;1.94;;
60641;SDS011;46837;52.446;-1.930;2023-04-03T00:53:07;12.00;;;2.08;;
60641;SDS011;46837;52.446;-1.930;2023-04-03T00:54:07;11.16;;;3.50;;
60641;SDS011;46837;52.446;-1.930;2023-04-03T00:55:07;7.24;;;1.66;;
60641;SDS011;46837;52.446;-1.930;2023-04-03T00:56:08;3.50;;;1.74;;
60641;SDS011;46837;52.446;-1.930;2023-04-03T00:57:07;9.92;;;2.44;;
60641;SDS011;46837;52.446;-1.930;2023-04-03T00:58:07;5.56;;;1.74;;
60641;SDS011;46837;52.446;-1.930;2023-04-03T00:59:11;6.20;;;1.98;;
60641;SDS011;46837;52.446;-1.930;2023-04-03T01:00:08;4.64;;;1.90;;
60641;SDS011;46837;52.446;-1.930;2023-04-03T01:01:07;20.80;;;2.80;;
60641;SDS011;46837;52.446;-1.930;2023-04-03T01:02:07;12.74;;;2.58;;
60641;SDS011;46837;52.446;-1.930;2023-04-03T01:03:07;9.10;;;2.00;;
60641;SDS011;46837;52.446;-1.930;2023-04-03T01:04:24;7.78;;;2.10;;
60641;SDS011;46837;52.446;-1.930;2023-04-03T01:05:07;14.42;;;2.40;;
60641;SDS011;46837;52.446;-1.930;2023-04-03T01:06:07;6.86;;;2.04;;
60641;SDS011;46837;52.446;-1.930;2023-04-03T01:07:10;21.12;;;2.90;;
60641;SDS011;46837;52.446;-1.930;2023-04-03T01:08:07;6.26;;;1.88;;
60641;SDS011;46837;52.446;-1.930;2023-04-03T01:09:07;6.50;;;1.84;;
60641;SDS011;46837;52.446;-1.930;2023-04-03T01:10:08;9.10;;;2.70;;
60641;SDS011;46837;52.446;-1.930;2023-04-03T01:11:07;13.98;;;2.32;;
60641;SDS011;46837;52.446;-1.930;2023-04-03T01:14:07;9.72;;;2.30;;
60641;SDS011;46837;52.446;-1.930;2023-04-03T01:15:14;7.58;;;2.58;;
60641;SDS011;46837;52.446;-1.930;2023-04-03T01:16:07;7.12;;;1.96;;
60641;SDS011;46837;52.446;-1.930;2023-04-03T01:18:08;5.30;;;1.88;;
60641;SDS011;46837;52.446;-1.930;2023-04-03T01:19:07;6.94;;;1.76;;
60641;SDS011;46837;52.446;-1.930;2023-04-03T01:21:10;12.76;;;2.54;;
60641;SDS011;46837;52.446;-1.930;2023-04-03T01:22:13;10.32;;;3.34;;
60641;SDS011;46837;52.446;-1.930;2023-04-03T01:23:17;13.42;;;2.88;;
60641;SDS011;46837;52.446;-1.930;2023-04-03T01:24:11;7.00;;;1.84;;
60641;SDS011;46837;52.446;-1.930;2023-04-03T01:25:07;10.76;;;2.40;;
60641;SDS011;46837;52.446;-1.930;2023-04-03T01:26:07;13.64;;;2.88;;
60641;SDS011;46837;52.446;-1.930;2023-04-03T01:27:07;8.46;;;2.26;;
60641;SDS011;46837;52.446;-1.930;2023-04-03T01:28:08;10.62;;;2.70;;
60641;SDS011;46837;52.446;-1.930;2023-04-03T01:29:07;7.38;;;2.18;;
60641;SDS011;46837;52.446;-1.930;2023-04-03T01:30:07;6.84;;;2.90;;
60641;SDS011;46837;52.446;-1.930;2023-04-03T01:32:07;11.28;;;2.08;;
60641;SDS011;46837;52.446;-1.930;2023-04-03T01:33:07;10.22;;;2.12;;
60641;SDS011;46837;52.446;-1.930;2023-04-03T01:34:07;9.24;;;2.30;;
60641;SDS011;46837;52.446;-1.930;2023-04-03T01:35:08;12.50;;;2.92;;
60641;SDS011;46837;52.446;-1.930;2023-04-03T01:36:07;5.78;;;1.82;;
60641;SDS011;46837;52.446;-1.930;2023-04-03T01:37:07;8.68;;;2.76;;
60641;SDS011;46837;52.446;-1.930;2023-04-03T01:38:07;10.06;;;2.78;;
60641;SDS011;46837;52.446;-1.930;2023-04-03T01:39:07;7.70;;;2.04;;
60641;SDS011;46837;52.446;-1.930;2023-04-03T01:40:07;12.34;;;2.08;;
60641;SDS011;46837;52.446;-1.930;2023-04-03T01:41:07;7.82;;;1.82;;
60641;SDS011;46837;52.446;-1.930;2023-04-03T01:42:07;3.94;;;2.34;;
60641;SDS011;46837;52.446;-1.930;2023-04-03T01:43:07;8.98;;;2.32;;
60641;SDS011;46837;52.446;-1.930;2023-04-03T01:44:07;6.76;;;2.18;;
60641;SDS011;46837;52.446;-1.930;2023-04-03T01:45:07;6.96;;;3.08;;
60641;SDS011;46837;52.446;-1.930;2023-04-03T01:46:07;5.22;;;2.02;;
60641;SDS011;46837;52.446;-1.930;2023-04-03T01:47:07;8.32;;;2.46;;
60641;SDS011;46837;52.446;-1.930;2023-04-03T01:48:07;6.22;;;1.90;;
60641;SDS011;46837;52.446;-1.930;2023-04-03T01:49:07;6.70;;;2.00;;
60641;SDS011;46837;52.446;-1.930;2023-04-03T01:50:07;9.24;;;1.98;;
60641;SDS011;46837;52.446;-1.930;2023-04-03T01:51:07;7.10;;;2.48;;
60641;SDS011;46837;52.446;-1.930;2023-04-03T01:52:07;13.04;;;2.46;;
60641;SDS011;46837;52.446;-1.930;2023-04-03T01:53:07;11.92;;;2.54;;
60641;SDS011;46837;52.446;-1.930;2023-04-03T01:54:07;11.28;;;2.94;;
60641;SDS011;46837;52.446;-1.930;2023-04-03T01:55:07;10.18;;;2.48;;
60641;SDS011;46837;52.446;-1.930;2023-04-03T01:56:07;10.30;;;3.34;;
60641;SDS011;46837;52.446;-1.930;2023-04-03T01:57:07;9.34;;;3.18;;
60641;SDS011;46837;52.446;-1.930;2023-04-03T01:58:07;24.24;;;2.66;;
60641;SDS011;46837;52.446;-1.930;2023-04-03T01:59:07;7.70;;;2.16;;
60641;SDS011;46837;52.446;-1.930;2023-04-03T02:00:07;7.88;;;2.56;;
60641;SDS011;46837;52.446;-1.930;2023-04-03T02:01:07;9.14;;;2.70;;
60641;SDS011;46837;52.446;-1.930;2023-04-03T02:02:07;5.20;;;2.28;;
60641;SDS011;46837;52.446;-1.930;2023-04-03T02:03:07;12.58;;;3.08;;
60641;SDS011;46837;52.446;-1.930;2023-04-03T02:04:07;10.44;;;2.44;;
60641;SDS011;46837;52.446;-1.930;2023-04-03T02:05:07;9.26;;;3.00;;
60641;SDS011;46837;52.446;-1.930;2023-04-03T02:06:07;11.00;;;2.90;;
60641;SDS011;46837;52.446;-1.930;2023-04-03T02:07:07;12.36;;;2.72;;
60641;SDS011;46837;52.446;-1.930;2023-04-03T02:08:07;8.72;;;2.46;;
60641;SDS011;46837;52.446;-1.930;2023-04-03T02:09:07;11.20;;;2.94;;
60641;SDS011;46837;52.446;-1.930;2023-04-03T02:10:07;11.32;;;3.12;;
60641;SDS011;46837;52.446;-1.930;2023-04-03T02:11:07;8.60;;;2.92;;
60641;SDS011;46837;52.446;-1.930;2023-04-03T02:12:07;10.48;;;2.80;;
60641;SDS011;46837;52.446;-1.930;2023-04-03T02:13:07;4.94;;;2.56;;
60641;SDS011;46837;52.446;-1.930;2023-04-03T02:14:07;8.06;;;2.58;;
60641;SDS011;46837;52.446;-1.930;2023-04-03T02:15:07;3.40;;;2.08;;
60641;SDS011;46837;52.446;-1.930;2023-04-03T02:16:07;7.04;;;2.18;;
60641;SDS011;46837;52.446;-1.930;2023-04-03T02:17:09;8.74;;;2.80;;
60641;SDS011;46837;52.446;-1.930;2023-04-03T02:18:07;8.86;;;3.12;;
60641;SDS011;46837;52.446;-1.930;2023-04-03T02:19:07;9.20;;;2.58;;
60641;SDS011;46837;52.446;-1.930;2023-04-03T02:20:07;7.80;;;2.84;;
60641;SDS011;46837;52.446;-1.930;2023-04-03T02:21:07;13.90;;;2.92;;
60641;SDS011;46837;52.446;-1.930;2023-04-03T02:22:07;11.26;;;3.44;;
60641;SDS011;46837;52.446;-1.930;2023-04-03T02:23:07;6.42;;;2.44;;
60641;SDS011;46837;52.446;-1.930;2023-04-03T02:24:07;7.82;;;2.72;;
60641;SDS011;46837;52.446;-1.930;2023-04-03T02:25:07;10.28;;;2.88;;
60641;SDS011;46837;52.446;-1.930;2023-04-03T02:26:08;8.24;;;2.48;;
60641;SDS011;46837;52.446;-1.930;2023-04-03T02:27:07;8.66;;;2.70;;
60641;SDS011;46837;52.446;-1.930;2023-04-03T02:28:07;11.56;;;3.66;;
60641;SDS011;46837;52.446;-1.930;2023-04-03T02:29:07;10.10;;;2.76;;
60641;SDS011;46837;52.446;-1.930;2023-04-03T02:30:07;11.06;;;2.38;;
60641;SDS011;46837;52.446;-1.930;2023-04-03T02:31:07;6.40;;;2.66;;
60641;SDS011;46837;52.446;-1.930;2023-04-03T02:32:07;16.58;;;3.30;;
60641;SDS011;46837;52.446;-1.930;2023-04-03T02:33:07;8.46;;;2.38;;
60641;SDS011;46837;52.446;-1.930;2023-04-03T02:34:07;6.06;;;2.44;;
60641;SDS011;46837;52.446;-1.930;2023-04-03T02:35:07;13.54;;;2.66;;
60641;SDS011;46837;52.446;-1.930;2023-04-03T02:36:07;4.26;;;1.86;;
60641;SDS011;46837;52.446;-1.930;2023-04-03T02:37:07;5.38;;;2.36;;
60641;SDS011;46837;52.446;-1.930;2023-04-03T02:38:07;10.70;;;2.90;;
60641;SDS011;46837;52.446;-1.930;2023-04-03T02:39:07;8.44;;;2.78;;
60641;SDS011;46837;52.446;-1.930;2023-04-03T02:40:07;9.12;;;2.70;;
60641;SDS011;46837;52.446;-1.930;2023-04-03T02:41:07;12.62;;;2.96;;
60641;SDS011;46837;52.446;-1.930;2023-04-03T02:42:07;7.56;;;2.80;;
60641;SDS011;46837;52.446;-1.930;2023-04-03T02:43:07;5.34;;;2.48;;
60641;SDS011;46837;52.446;-1.930;2023-04-03T02:44:08;8.36;;;2.30;;
60641;SDS011;46837;52.446;-1.930;2023-04-03T02:45:07;7.92;;;2.16;;
60641;SDS011;46837;52.446;-1.930;2023-04-03T02:46:07;7.90;;;2.64;;
60641;SDS011;46837;52.446;-1.930;2023-04-03T02:47:07;7.58;;;3.38;;
60641;SDS011;46837;52.446;-1.930;2023-04-03T02:48:07;7.36;;;2.44;;
60641;SDS011;46837;52.446;-1.930;2023-04-03T02:49:07;5.54;;;2.28;;
60641;SDS011;46837;52.446;-1.930;2023-04-03T02:50:07;9.98;;;2.84;;
60641;SDS011;46837;52.446;-1.930;2023-04-03T02:51:07;13.10;;;2.90;;
60641;SDS011;46837;52.446;-1.930;2023-04-03T02:52:07;7.02;;;2.80;;
60641;SDS011;46837;52.446;-1.930;2023-04-03T02:53:07;7.28;;;2.40;;
60641;SDS011;46837;52.446;-1.930;2023-04-03T02:54:07;9.06;;;2.72;;
60641;SDS011;46837;52.446;-1.930;2023-04-03T02:55:07;12.30;;;2.74;;
60641;SDS011;46837;52.446;-1.930;2023-04-03T02:56:07;6.98;;;2.46;;
60641;SDS011;46837;52.446;-1.930;2023-04-03T02:57:07;5.14;;;3.10;;
60641;SDS011;46837;52.446;-1.930;2023-04-03T02:58:07;12.50;;;3.66;;
60641;SDS011;46837;52.446;-1.930;2023-04-03T02:59:07;8.38;;;2.68;;
60641;SDS011;46837;52.446;-1.930;2023-04-03T03:00:07;10.52;;;2.52;;
60641;SDS011;46837;52.446;-1.930;2023-04-03T03:01:07;8.68;;;2.94;;
60641;SDS011;46837;52.446;-1.930;2023-04-03T03:02:07;8.08;;;2.50;;
60641;SDS011;46837;52.446;-1.930;2023-04-03T03:03:07;8.44;;;2.06;;
60641;SDS011;46837;52.446;-1.930;2023-04-03T03:04:07;8.16;;;2.42;;
60641;SDS011;46837;52.446;-1.930;2023-04-03T03:05:07;8.90;;;2.54;;
60641;SDS011;46837;52.446;-1.930;2023-04-03T03:06:08;11.94;;;3.12;;
60641;SDS011;46837;52.446;-1.930;2023-04-03T03:07:07;9.14;;;2.54;;
60641;SDS011;46837;52.446;-1.930;2023-04-03T03:08:07;8.78;;;2.68;;
60641;SDS011;46837;52.446;-1.930;2023-04-03T03:09:07;15.96;;;2.66;;
60641;SDS011;46837;52.446;-1.930;2023-04-03T03:10:07;7.20;;;2.24;;
60641;SDS011;46837;52.446;-1.930;2023-04-03T03:11:07;7.86;;;2.36;;
60641;SDS011;46837;52.446;-1.930;2023-04-03T03:12:07;8.88;;;3.00;;
60641;SDS011;46837;52.446;-1.930;2023-04-03T03:13:07;8.20;;;2.70;;
60641;SDS011;46837;52.446;-1.930;2023-04-03T03:14:07;5.08;;;2.94;;
60641;SDS011;46837;52.446;-1.930;2023-04-03T03:15:07;5.96;;;2.54;;
60641;SDS011;46837;52.446;-1.930;2023-04-03T03:16:07;8.96;;;2.96;;
60641;SDS011;46837;52.446;-1.930;2023-04-03T03:17:07;6.64;;;2.86;;
60641;SDS011;46837;52.446;-1.930;2023-04-03T03:18:07;8.20;;;2.66;;
60641;SDS011;46837;52.446;-1.930;2023-04-03T03:19:07;6.36;;;2.90;;
60641;SDS011;46837;52.446;-1.930;2023-04-03T03:20:07;5.80;;;2.32;;
60641;SDS011;46837;52.446;-1.930;2023-04-03T03:21:08;5.76;;;2.60;;
60641;SDS011;46837;52.446;-1.930;2023-04-03T03:22:07;10.22;;;2.62;;
60641;SDS011;46837;52.446;-1.930;2023-04-03T03:23:07;6.22;;;2.60;;
60641;SDS011;46837;52.446;-1.930;2023-04-03T03:24:07;11.22;;;4.02;;
60641;SDS011;46837;52.446;-1.930;2023-04-03T03:25:07;9.86;;;2.56;;
60641;SDS011;46837;52.446;-1.930;2023-04-03T03:26:08;12.86;;;3.36;;
60641;SDS011;46837;52.446;-1.930;2023-04-03T03:27:07;8.56;;;2.96;;
60641;SDS011;46837;52.446;-1.930;2023-04-03T03:28:07;5.80;;;2.34;;
60641;SDS011;46837;52.446;-1.930;2023-04-03T03:29:07;7.56;;;3.10;;
60641;SDS011;46837;52.446;-1.930;2023-04-03T03:30:07;6.60;;;2.58;;
60641;SDS011;46837;52.446;-1.930;2023-04-03T03:31:09;3.86;;;2.14;;
60641;SDS011;46837;52.446;-1.930;2023-04-03T03:32:07;8.90;;;3.06;;
60641;SDS011;46837;52.446;-1.930;2023-04-03T03:33:07;4.86;;;2.62;;
60641;SDS011;46837;52.446;-1.930;2023-04-03T03:34:07;9.56;;;2.50;;
60641;SDS011;46837;52.446;-1.930;2023-04-03T03:35:07;9.18;;;3.86;;
60641;SDS011;46837;52.446;-1.930;2023-04-03T03:36:07;9.52;;;2.82;;
60641;SDS011;46837;52.446;-1.930;2023-04-03T03:37:07;12.38;;;3.32;;
60641;SDS011;46837;52.446;-1.930;2023-04-03T03:38:07;5.54;;;2.30;;
60641;SDS011;46837;52.446;-1.930;2023-04-03T03:39:07;7.16;;;2.78;;
60641;SDS011;46837;52.446;-1.930;2023-04-03T03:40:07;5.22;;;2.64;;
60641;SDS011;46837;52.446;-1.930;2023-04-03T03:41:07;8.96;;;3.12;;
60641;SDS011;46837;52.446;-1.930;2023-04-03T03:42:07;8.84;;;2.46;;
60641;SDS011;46837;52.446;-1.930;2023-04-03T03:43:07;6.14;;;2.98;;
60641;SDS011;46837;52.446;-1.930;2023-04-03T03:44:07;20.86;;;3.26;;
60641;SDS011;46837;52.446;-1.930;2023-04-03T03:45:07;8.88;;;3.06;;
60641;SDS011;46837;52.446;-1.930;2023-04-03T03:46:07;9.78;;;2.92;;
60641;SDS011;46837;52.446;-1.930;2023-04-03T03:47:07;9.22;;;3.10;;
60641;SDS011;46837;52.446;-1.930;2023-04-03T03:48:07;6.38;;;2.60;;
60641;SDS011;46837;52.446;-1.930;2023-04-03T03:49:07;7.86;;;3.06;;
60641;SDS011;46837;52.446;-1.930;2023-04-03T03:50:07;10.72;;;3.18;;
60641;SDS011;46837;52.446;-1.930;2023-04-03T03:51:07;13.80;;;2.98;;
60641;SDS011;46837;52.446;-1.930;2023-04-03T03:52:07;19.88;;;3.22;;
60641;SDS011;46837;52.446;-1.930;2023-04-03T03:53:07;7.30;;;2.94;;
60641;SDS011;46837;52.446;-1.930;2023-04-03T03:54:07;5.46;;;2.92;;
60641;SDS011;46837;52.446;-1.930;2023-04-03T03:55:07;6.88;;;2.54;;
60641;SDS011;46837;52.446;-1.930;2023-04-03T03:56:07;9.62;;;3.32;;
60641;SDS011;46837;52.446;-1.930;2023-04-03T03:57:07;7.54;;;3.04;;
60641;SDS011;46837;52.446;-1.930;2023-04-03T03:58:07;12.30;;;3.12;;
60641;SDS011;46837;52.446;-1.930;2023-04-03T03:59:07;13.80;;;3.74;;
60641;SDS011;46837;52.446;-1.930;2023-04-03T04:00:07;10.38;;;2.72;;
60641;SDS011;46837;52.446;-1.930;2023-04-03T04:01:07;13.84;;;3.46;;
60641;SDS011;46837;52.446;-1.930;2023-04-03T04:02:07;14.32;;;3.60;;
60641;SDS011;46837;52.446;-1.930;2023-04-03T04:03:07;14.36;;;3.76;;
60641;SDS011;46837;52.446;-1.930;2023-04-03T04:04:07;14.18;;;3.26;;
60641;SDS011;46837;52.446;-1.930;2023-04-03T04:05:07;6.74;;;3.14;;
60641;SDS011;46837;52.446;-1.930;2023-04-03T04:06:07;8.70;;;3.72;;
60641;SDS011;46837;52.446;-1.930;2023-04-03T04:07:07;14.08;;;5.28;;
60641;SDS011;46837;52.446;-1.930;2023-04-03T04:08:07;11.42;;;3.88;;
60641;SDS011;46837;52.446;-1.930;2023-04-03T04:09:08;9.32;;;3.12;;
60641;SDS011;46837;52.446;-1.930;2023-04-03T04:10:07;7.82;;;3.28;;
60641;SDS011;46837;52.446;-1.930;2023-04-03T04:11:07;12.44;;;3.02;;
60641;SDS011;46837;52.446;-1.930;2023-04-03T04:12:07;10.94;;;2.80;;
60641;SDS011;46837;52.446;-1.930;2023-04-03T04:13:07;6.56;;;3.18;;
60641;SDS011;46837;52.446;-1.930;2023-04-03T04:14:07;5.80;;;2.80;;
60641;SDS011;46837;52.446;-1.930;2023-04-03T04:15:07;11.12;;;3.50;;
60641;SDS011;46837;52.446;-1.930;2023-04-03T04:16:07;11.30;;;3.52;;
60641;SDS011;46837;52.446;-1.930;2023-04-03T04:17:07;10.24;;;3.42;;
60641;SDS011;46837;52.446;-1.930;2023-04-03T04:18:07;9.32;;;3.80;;
60641;SDS011;46837;52.446;-1.930;2023-04-03T04:19:07;10.36;;;3.22;;
60641;SDS011;46837;52.446;-1.930;2023-04-03T04:20:07;11.98;;;3.92;;
60641;SDS011;46837;52.446;-1.930;2023-04-03T04:21:07;10.70;;;5.02;;
60641;SDS011;46837;52.446;-1.930;2023-04-03T04:22:07;8.16;;;3.62;;
60641;SDS011;46837;52.446;-1.930;2023-04-03T04:23:07;9.32;;;3.48;;
60641;SDS011;46837;52.446;-1.930;2023-04-03T04:24:07;10.58;;;3.62;;
60641;SDS011;46837;52.446;-1.930;2023-04-03T04:25:07;13.70;;;4.22;;
60641;SDS011;46837;52.446;-1.930;2023-04-03T04:26:07;8.98;;;3.52;;
60641;SDS011;46837;52.446;-1.930;2023-04-03T04:27:07;7.50;;;3.58;;
60641;SDS011;46837;52.446;-1.930;2023-04-03T04:28:07;7.20;;;3.32;;
60641;SDS011;46837;52.446;-1.930;2023-04-03T04:29:08;11.10;;;4.36;;
60641;SDS011;46837;52.446;-1.930;2023-04-03T04:30:07;9.20;;;3.16;;
60641;SDS011;46837;52.446;-1.930;2023-04-03T04:31:07;7.26;;;3.06;;
60641;SDS011;46837;52.446;-1.930;2023-04-03T04:32:07;7.70;;;3.64;;
60641;SDS011;46837;52.446;-1.930;2023-04-03T04:33:07;11.42;;;3.28;;
60641;SDS011;46837;52.446;-1.930;2023-04-03T04:34:07;8.70;;;3.38;;
60641;SDS011;46837;52.446;-1.930;2023-04-03T04:35:07;9.32;;;2.86;;
60641;SDS011;46837;52.446;-1.930;2023-04-03T04:36:07;15.42;;;5.18;;
60641;SDS011;46837;52.446;-1.930;2023-04-03T04:37:07;9.00;;;3.66;;
60641;SDS011;46837;52.446;-1.930;2023-04-03T04:38:07;8.56;;;3.74;;
60641;SDS011;46837;52.446;-1.930;2023-04-03T04:39:07;17.52;;;3.90;;
60641;SDS011;46837;52.446;-1.930;2023-04-03T04:40:07;14.12;;;4.24;;
60641;SDS011;46837;52.446;-1.930;2023-04-03T04:41:07;15.50;;;3.12;;
60641;SDS011;46837;52.446;-1.930;2023-04-03T04:42:07;11.98;;;3.86;;
60641;SDS011;46837;52.446;-1.930;2023-04-03T04:43:07;7.00;;;3.70;;
60641;SDS011;46837;52.446;-1.930;2023-04-03T04:44:07;15.62;;;3.72;;
60641;SDS011;46837;52.446;-1.930;2023-04-03T04:45:07;7.62;;;3.40;;
60641;SDS011;46837;52.446;-1.930;2023-04-03T04:46:07;12.08;;;3.42;;
60641;SDS011;46837;52.446;-1.930;2023-04-03T04:47:07;10.66;;;4.16;;
60641;SDS011;46837;52.446;-1.930;2023-04-03T04:48:07;10.56;;;3.30;;
60641;SDS011;46837;52.446;-1.930;2023-04-03T04:49:07;12.80;;;3.68;;
60641;SDS011;46837;52.446;-1.930;2023-04-03T04:50:07;7.80;;;3.48;;
60641;SDS011;46837;52.446;-1.930;2023-04-03T04:51:07;11.46;;;3.68;;
60641;SDS011;46837;52.446;-1.930;2023-04-03T04:52:07;12.84;;;3.46;;
60641;SDS011;46837;52.446;-1.930;2023-04-03T04:53:07;9.92;;;3.26;;
60641;SDS011;46837;52.446;-1.930;2023-04-03T04:54:07;8.92;;;3.42;;
60641;SDS011;46837;52.446;-1.930;2023-04-03T04:55:07;6.42;;;3.30;;
60641;SDS011;46837;52.446;-1.930;2023-04-03T04:56:07;9.60;;;3.88;;
60641;SDS011;46837;52.446;-1.930;2023-04-03T04:57:07;12.76;;;3.32;;
60641;SDS011;46837;52.446;-1.930;2023-04-03T04:58:07;11.56;;;4.26;;
60641;SDS011;46837;52.446;-1.930;2023-04-03T04:59:07;11.52;;;3.88;;
60641;SDS011;46837;52.446;-1.930;2023-04-03T05:00:07;11.18;;;3.40;;
60641;SDS011;46837;52.446;-1.930;2023-04-03T05:01:08;10.34;;;3.72;;
60641;SDS011;46837;52.446;-1.930;2023-04-03T05:02:07;9.94;;;3.62;;
60641;SDS011;46837;52.446;-1.930;2023-04-03T05:03:07;8.84;;;4.00;;
60641;SDS011;46837;52.446;-1.930;2023-04-03T05:04:07;8.62;;;3.80;;
60641;SDS011;46837;52.446;-1.930;2023-04-03T05:05:07;7.80;;;3.84;;
60641;SDS011;46837;52.446;-1.930;2023-04-03T05:06:07;16.58;;;3.84;;
60641;SDS011;46837;52.446;-1.930;2023-04-03T05:07:07;10.98;;;4.14;;
60641;SDS011;46837;52.446;-1.930;2023-04-03T05:08:07;11.18;;;4.42;;
60641;SDS011;46837;52.446;-1.930;2023-04-03T05:09:07;8.70;;;3.30;;
60641;SDS011;46837;52.446;-1.930;2023-04-03T05:10:07;14.10;;;3.64;;
60641;SDS011;46837;52.446;-1.930;2023-04-03T05:11:07;10.82;;;3.68;;
60641;SDS011;46837;52.446;-1.930;2023-04-03T05:12:07;10.80;;;3.80;;
60641;SDS011;46837;52.446;-1.930;2023-04-03T05:13:07;11.26;;;3.76;;
60641;SDS011;46837;52.446;-1.930;2023-04-03T05:14:07;8.36;;;4.10;;
60641;SDS011;46837;52.446;-1.930;2023-04-03T05:15:07;7.84;;;4.04;;
60641;SDS011;46837;52.446;-1.930;2023-04-03T05:16:07;11.60;;;5.22;;
60641;SDS011;46837;52.446;-1.930;2023-04-03T05:17:07;7.12;;;3.88;;
60641;SDS011;46837;52.446;-1.930;2023-04-03T05:18:07;13.44;;;3.72;;
60641;SDS011;46837;52.446;-1.930;2023-04-03T05:19:07;6.86;;;3.44;;
60641;SDS011;46837;52.446;-1.930;2023-04-03T05:20:07;14.60;;;3.50;;
60641;SDS011;46837;52.446;-1.930;2023-04-03T05:21:07;19.50;;;5.20;;
60641;SDS011;46837;52.446;-1.930;2023-04-03T05:22:07;12.22;;;5.94;;
60641;SDS011;46837;52.446;-1.930;2023-04-03T05:23:07;11.78;;;3.64;;
60641;SDS011;46837;52.446;-1.930;2023-04-03T05:24:07;12.42;;;3.70;;
60641;SDS011;46837;52.446;-1.930;2023-04-03T05:25:07;24.96;;;4.08;;
60641;SDS011;46837;52.446;-1.930;2023-04-03T05:26:07;8.30;;;4.12;;
60641;SDS011;46837;52.446;-1.930;2023-04-03T05:27:07;10.20;;;4.22;;
60641;SDS011;46837;52.446;-1.930;2023-04-03T05:28:07;8.70;;;4.18;;
60641;SDS011;46837;52.446;-1.930;2023-04-03T05:29:07;6.82;;;3.44;;
60641;SDS011;46837;52.446;-1.930;2023-04-03T05:30:07;8.54;;;3.94;;
60641;SDS011;46837;52.446;-1.930;2023-04-03T05:31:07;15.42;;;4.54;;
60641;SDS011;46837;52.446;-1.930;2023-04-03T05:32:07;13.00;;;3.62;;
60641;SDS011;46837;52.446;-1.930;2023-04-03T05:33:07;8.52;;;3.32;;
60641;SDS011;46837;52.446;-1.930;2023-04-03T05:34:07;10.32;;;3.94;;
60641;SDS011;46837;52.446;-1.930;2023-04-03T05:35:07;13.22;;;4.24;;
60641;SDS011;46837;52.446;-1.930;2023-04-03T05:36:07;12.38;;;4.00;;
60641;SDS011;46837;52.446;-1.930;2023-04-03T05:37:07;13.30;;;4.32;;
60641;SDS011;46837;52.446;-1.930;2023-04-03T05:38:07;7.70;;;4.22;;
60641;SDS011;46837;52.446;-1.930;2023-04-03T05:39:07;9.26;;;4.10;;
60641;SDS011;46837;52.446;-1.930;2023-04-03T05:40:07;6.96;;;4.12;;
60641;SDS011;46837;52.446;-1.930;2023-04-03T05:41:07;11.22;;;4.62;;
60641;SDS011;46837;52.446;-1.930;2023-04-03T05:42:07;13.74;;;4.52;;
60641;SDS011;46837;52.446;-1.930;2023-04-03T05:43:07;9.86;;;3.80;;
60641;SDS011;46837;52.446;-1.930;2023-04-03T05:44:07;6.68;;;3.94;;
60641;SDS011;46837;52.446;-1.930;2023-04-03T05:45:07;9.48;;;4.08;;
60641;SDS011;46837;52.446;-1.930;2023-04-03T05:47:07;13.26;;;3.92;;
60641;SDS011;46837;52.446;-1.930;2023-04-03T05:48:07;18.90;;;5.46;;
60641;SDS011;46837;52.446;-1.930;2023-04-03T05:49:07;9.94;;;4.28;;
60641;SDS011;46837;52.446;-1.930;2023-04-03T05:50:07;12.14;;;4.08;;
60641;SDS011;46837;52.446;-1.930;2023-04-03T05:51:09;9.60;;;4.30;;
60641;SDS011;46837;52.446;-1.930;2023-04-03T05:52:13;12.60;;;4.74;;
60641;SDS011;46837;52.446;-1.930;2023-04-03T05:53:07;6.16;;;3.78;;
60641;SDS011;46837;52.446;-1.930;2023-04-03T05:54:09;10.18;;;3.92;;
60641;SDS011;46837;52.446;-1.930;2023-04-03T05:55:07;9.82;;;3.62;;
60641;SDS011;46837;52.446;-1.930;2023-04-03T05:56:07;13.74;;;3.46;;
60641;SDS011;46837;52.446;-1.930;2023-04-03T05:57:07;12.90;;;4.30;;
60641;SDS011;46837;52.446;-1.930;2023-04-03T05:58:07;11.54;;;3.76;;
60641;SDS011;46837;52.446;-1.930;2023-04-03T05:59:07;8.44;;;3.60;;
60641;SDS011;46837;52.446;-1.930;2023-04-03T06:00:07;7.84;;;3.82;;